Rushville, IL

10:44 PM CDT on July 29, 2015 (GMT -0500)
Rushville (Inner City) | | Change Station
CLOSE
Current Station
Personal Weather Station
Location: Rushville, IL
Elevation: 666 ft
Nearby Weather Stations
Active Advisory: Flood Warning

Elev 666 ft 40.12 °N, 90.57 °W | Updated 4 minutes ago

Clear
Clear
70.3 °F
Feels Like 70 °F
N
0.0
Wind Variable Wind from WSW
Gusts 0.0 mph

Today
High -- | Low -- °F
--% Chance of Precip.
Yesterday
High -- | Low -- °F
Precip. -- in
5:57 AM 8:19 PM
Waxing Gibbous, 98% visible
Pressure 30.13 in
Visibility 10.0 miles
Clouds Clear
Heat Index 70 °F
Dew Point 65 °F
Humidity 82%
Rainfall 0.00 in
Snow Depth Not available.
UV 0 out of 12
Pollen 1.20 out of 12
Air Quality Not available.
Flu Activity Not available.
METAR KMQB 300335Z AUTO 27003KT 10SM CLR 19/18 A3013 RMK AO2 T01930180

More Conditions Fewer Conditions

Pressure 30.13 in
Visibility 10.0 miles
Clouds Clear
Heat Index 70 °F
Dew Point 65 °F
Humidity 82%
Rainfall 0.00 in
Snow Depth Not available.
UV 0 out of 12
Pollen 1.20 out of 12
Air Quality Not available.
Flu Activity Not available.
METAR KMQB 300335Z AUTO 27003KT 10SM CLR 19/18 A3013 RMK AO2 T01930180

More Conditions Fewer Conditions

10-Day Weather Forecast

×

Almanac

Astronomy

Jul. 29, 2015 Rise Set
Actual Time
Civil Twilight
Nautical Twilight
Astronomical Twilight
Moon
Length of Visible Light
Length of Day
Tomorrow will be .
, % of the Moon is Illuminated

Today's Extremes

State Highs State Lows

Community

WunderPhotos

Upload Photos

1,842,292 photos uploaded!

WunderBlogs® & News

Nearby

Air Quality

  Air Quality AQ Index Pollutant
Not available.

Snow Depth

Station Depth Elevation

Earthquake Activity

City Distance Mag. Time & Date
Minimum magnitude displayed is 2.5.

Coastal Water Temperatures

Place Temperature

Stations

Nearby Weather Stations

Station Location Temp. Windchill Dew Point Humidity Wind Precip. Elev Updated Type
                   
Flood Warning
Statement as of 8:00 PM CDT on July 29, 2015

The Flood Warning continues for
the Illinois River at Beardstown.
* Until further notice.
* At 445 PM Wednesday the stage was 21.4 feet.
* Flood stage is 14.0 feet.
* Moderate flooding is occurring and moderate flooding is forecast.
* Forecast... the river will continue to fall to a stage of 20.5 feet
by Friday morning.
* Impact... at 20.0 feet... seepage problems begin in the south
Beardstown drainage and levee district.



                  Fld observed forecast 6am
location stg stg day time Thu Fri Sat

Illinois River
Beardstown 14 21.4 Wed 5 PM 21.1 20.5 19.9



Lat... Lon 4018 9023 4012 9017 4008 9037 3999 9046
      3999 9058 4015 9043